< < Back
Terminal Aerodrome Forecast


Current Version              Previous Versions:   1  2  3  4  5  6  7  8  9  

Terminal Aerodrome Forecast

577
FTUS42 KFFC 302135 AAB
TAFFTY
TAF AMD
KFTY 302135Z 3022/3118 20007KT P6SM VCSH SCT040 BKN120
     FM310000 23005KT P6SM SCT060
     FM310900 00000KT P6SM BKN035
     FM311000 00000KT 3SM BR BKN035
     FM311300 23003KT P6SM SCT035 PROB30 3115/3118 SHRA BKN045=

Latest METAR

300
SAUS70 KWBC 310100 RRD
MTRFTY
METAR KFTY 310053Z 22004KT 10SM CLR 26/22 A3002 RMK AO2 SLP156
T02560222


USA.gov is the U.S. government's official web portal to all federal, state and local government web resources and services.